Time;durP1;ratioP1;P1;durP2;ratioP2;P2;SDS_P1;SDS_P2;PMS_P1;PMS_P2;Temp;Humidity;BMP_temperature;BMP_pressure;BME280_temperature;BME280_humidity;BME280_pressure;Samples;Min_cycle;Max_cycle;Signal;HPM_P1;HPM_P2
2021/01/20 00:01:36;;;;;;;11.80;10.60;;;;;;;9.68;73.49;99712.31;5118834;28;20467;-71
2021/01/20 00:04:01;;;;;;;11.27;10.17;;;;;;;9.31;74.75;99711.53;5119021;28;20616;-68
2021/01/20 00:06:26;;;;;;;13.07;11.83;;;;;;;9.78;73.52;99710.53;5118982;28;20245;-69
2021/01/20 00:08:52;;;;;;;13.67;12.27;;;;;;;9.52;74.54;99713.22;5118989;28;20224;-70
2021/01/20 00:11:17;;;;;;;12.80;11.50;;;;;;;9.31;75.48;99696.81;5118781;28;20217;-70
2021/01/20 00:13:43;;;;;;;13.33;11.97;;;;;;;9.49;74.31;99706.28;5118691;28;20476;-69
2021/01/20 00:16:08;;;;;;;13.90;11.80;;;;;;;9.13;75.39;99713.28;5119071;28;20168;-69
2021/01/20 00:18:33;;;;;;;15.30;12.30;;;;;;;9.46;74.77;99702.81;5118512;28;20195;-67
2021/01/20 00:20:59;;;;;;;13.17;11.87;;;;;;;9.98;72.42;99704.38;5117771;28;20557;-69
2021/01/20 00:23:24;;;;;;;13.10;11.80;;;;;;;9.50;74.14;99705.44;5118888;28;20160;-69
2021/01/20 00:25:49;;;;;;;13.63;11.33;;;;;;;9.49;73.57;99715.84;5117969;28;20178;-68
2021/01/20 00:28:15;;;;;;;11.17;10.07;;;;;;;8.98;75.31;99703.75;5118408;28;20451;-67
2021/01/20 00:30:40;;;;;;;13.13;11.83;;;;;;;8.95;74.98;99693.38;5118789;28;20413;-68
2021/01/20 00:33:05;;;;;;;12.07;10.90;;;;;;;9.25;73.58;99705.50;5118164;28;20175;-68
2021/01/20 00:35:31;;;;;;;13.30;11.77;;;;;;;9.14;73.38;99701.16;5118304;28;20199;-67
2021/01/20 00:37:56;;;;;;;14.37;12.40;;;;;;;9.13;73.99;99704.63;5118586;28;20171;-67
2021/01/20 00:40:21;;;;;;;13.17;11.87;;;;;;;8.97;74.29;99698.56;5118005;28;20203;-68
2021/01/20 00:42:47;;;;;;;12.37;11.17;;;;;;;9.18;73.57;99700.28;5118258;28;20208;-68
2021/01/20 00:45:12;;;;;;;13.43;12.03;;;;;;;9.33;72.96;99705.44;5118639;28;20167;-67
2021/01/20 00:47:38;;;;;;;13.80;12.30;;;;;;;9.35;73.09;99698.53;5117896;28;20175;-68
2021/01/20 00:50:04;;;;;;;14.33;12.00;;;;;;;9.03;73.97;99702.03;5109080;28;20419;-68
2021/01/20 00:52:29;;;;;;;13.87;11.83;;;;;;;8.81;74.33;99697.69;5103401;28;20297;-68
2021/01/20 00:54:55;;;;;;;13.77;12.30;;;;;;;8.62;75.23;99699.44;5117320;28;20447;-69
2021/01/20 00:57:20;;;;;;;14.40;12.90;;;;;;;9.06;74.21;99706.38;5107632;28;20183;-69
2021/01/20 00:59:45;;;;;;;13.70;12.10;;;;;;;8.86;73.97;99708.97;5097760;28;20195;-69
2021/01/20 01:02:11;;;;;;;13.97;12.40;;;;;;;8.63;74.81;99695.97;5097612;28;20168;-68
2021/01/20 01:04:36;;;;;;;14.23;11.87;;;;;;;8.73;74.35;99695.13;5097456;28;20231;-68
2021/01/20 01:07:01;;;;;;;15.03;13.50;;;;;;;9.10;73.42;99701.16;5117863;28;20425;-68
2021/01/20 01:09:26;;;;;;;14.73;13.20;;;;;;;9.14;73.30;99690.75;5117779;28;20202;-69
2021/01/20 01:11:52;;;;;;;16.00;14.03;;;;;;;9.00;74.32;99696.84;5117748;28;20691;-70
2021/01/20 01:14:17;;;;;;;15.57;13.90;;;;;;;9.19;73.79;99692.47;5118201;28;20171;-69
2021/01/20 01:16:43;;;;;;;17.50;15.63;;;;;;;8.39;75.97;99700.25;5117821;28;20179;-67
2021/01/20 01:19:08;;;;;;;18.10;15.50;;;;;;;8.50;75.66;99689.91;5117789;28;20573;-68
2021/01/20 01:21:34;;;;;;;18.87;16.37;;;;;;;8.88;74.04;99691.66;5118015;28;20564;-67
2021/01/20 01:23:59;;;;;;;19.77;16.90;;;;;;;8.73;74.48;99693.38;5098363;28;20207;-67
2021/01/20 01:26:25;;;;;;;19.20;16.27;;;;;;;8.52;74.37;99678.63;5097271;28;20180;-68
2021/01/20 01:28:50;;;;;;;17.30;15.07;;;;;;;8.63;73.40;99676.03;5097571;28;20564;-67
2021/01/20 01:31:15;;;;;;;19.50;16.10;;;;;;;8.83;73.14;99688.19;5097036;28;20172;-69
2021/01/20 01:33:41;;;;;;;19.43;17.37;;;;;;;8.50;73.19;99677.78;5097222;28;20470;-69
2021/01/20 01:36:06;;;;;;;18.27;16.23;;;;;;;9.13;72.73;99676.03;5097518;28;20176;-70
2021/01/20 01:38:31;;;;;;;18.57;16.43;;;;;;;9.03;72.05;99676.03;5114180;28;20214;-69
2021/01/20 01:40:57;;;;;;;18.70;15.60;;;;;;;8.97;71.98;99668.25;5121576;28;20204;-69
2021/01/20 01:43:23;;;;;;;18.73;16.50;;;;;;;8.70;72.75;99667.41;5122024;28;20167;-67
2021/01/20 01:45:49;;;;;;;18.03;15.73;;;;;;;8.74;72.42;99673.44;5121666;28;20486;-69
2021/01/20 01:48:15;;;;;;;19.13;17.07;;;;;;;8.54;72.03;99671.72;5120918;28;20769;-70
2021/01/20 01:50:41;;;;;;;18.10;16.00;;;;;;;8.66;72.26;99670.88;5121861;28;20412;-71
2021/01/20 01:53:06;;;;;;;19.40;17.50;;;;;;;8.85;72.26;99666.53;5121494;28;20175;-69
2021/01/20 01:55:31;;;;;;;22.13;17.87;;;;;;;8.92;71.30;99670.84;5120669;28;20545;-69
2021/01/20 01:57:57;;;;;;;21.97;19.60;;;;;;;8.66;72.99;99669.97;5121669;28;20258;-69
2021/01/20 02:00:22;;;;;;;22.93;20.53;;;;;;;8.81;72.15;99659.59;5120508;28;20196;-69
2021/01/20 02:02:55;;;;;;;21.63;19.23;;;;;;;8.67;72.12;99664.78;5121378;28;20424;-70
2021/01/20 02:05:21;;;;;;;22.13;18.80;;;;;;;8.26;72.37;99655.22;5121733;28;20458;-71
2021/01/20 02:07:46;;;;;;;23.17;19.60;;;;;;;8.24;73.06;99651.72;5121377;28;20417;-70
2021/01/20 02:10:12;;;;;;;22.90;20.47;;;;;;;8.57;71.82;99665.66;5121178;28;20451;-71
2021/01/20 02:13:20;;;;;;;24.57;21.80;;;;;;;8.14;73.52;99662.97;5120790;28;20243;-70
2021/01/20 02:16:03;;;;;;;24.53;21.93;;;;;;;9.14;70.82;99654.38;5121156;28;20409;-69
2021/01/20 02:18:31;;;;;;;25.47;22.00;;;;;;;8.55;72.55;99651.78;5120414;28;20463;-68
2021/01/20 02:21:38;;;;;;;25.30;22.50;;;;;;;8.65;71.52;99656.13;5120854;27;20455;-67
2021/01/20 02:24:09;;;;;;;25.93;23.23;;;;;;;8.73;71.22;99657.00;5120393;28;20431;-67
2021/01/20 02:26:53;;;;;;;23.60;21.13;;;;;;;8.42;71.71;99667.34;5120180;28;20497;-67
2021/01/20 02:29:28;;;;;;;26.33;22.30;;;;;;;8.42;72.72;99651.75;5120944;28;20460;-67
2021/01/20 02:31:55;;;;;;;26.10;23.27;;;;;;;8.84;70.76;99662.19;5120155;28;20695;-70
2021/01/20 02:34:21;;;;;;;27.83;22.77;;;;;;;8.39;71.84;99659.56;5120014;28;20429;-69
2021/01/20 02:36:47;;;;;;;24.93;22.33;;;;;;;8.52;71.87;99652.66;5120668;28;20831;-69
2021/01/20 02:39:12;;;;;;;25.23;22.53;;;;;;;8.51;71.20;99663.06;5119799;28;20526;-69
2021/01/20 02:41:38;;;;;;;28.97;23.60;;;;;;;8.46;71.36;99662.19;5120050;28;20474;-70
2021/01/20 02:44:05;;;;;;;26.40;23.60;;;;;;;8.61;70.36;99659.59;5120573;28;20236;-69
2021/01/20 02:46:31;;;;;;;26.57;23.47;;;;;;;8.87;69.93;99658.72;5120531;28;20221;-70
2021/01/20 02:48:58;;;;;;;26.83;23.00;;;;;;;8.84;69.95;99664.78;5120202;28;20488;-70
2021/01/20 02:51:48;;;;;;;27.33;23.50;;;;;;;8.36;71.12;99659.56;5120211;28;20436;-69
2021/01/20 02:54:15;;;;;;;24.27;21.73;;;;;;;8.64;70.27;99662.19;5120300;28;20425;-69
2021/01/20 02:56:45;;;;;;;24.23;21.60;;;;;;;8.78;69.49;99656.97;5119412;28;20421;-69
2021/01/20 02:59:11;;;;;;;27.70;22.00;;;;;;;8.63;70.14;99670.84;5119513;28;20469;-68
2021/01/20 03:01:37;;;;;;;24.60;21.57;;;;;;;8.25;70.97;99659.53;5119817;28;20454;-69
2021/01/20 03:04:04;;;;;;;24.23;21.63;;;;;;;8.55;70.13;99663.06;5119359;28;20223;-70
2021/01/20 03:06:30;;;;;;;26.30;21.87;;;;;;;8.66;69.72;99655.28;5120093;28;20483;-69
2021/01/20 03:08:55;;;;;;;24.13;20.50;;;;;;;8.29;69.99;99654.34;5119665;28;20441;-69
2021/01/20 03:11:21;;;;;;;24.53;21.57;;;;;;;8.18;70.92;99650.00;5119067;28;20405;-69
2021/01/20 03:13:47;;;;;;;23.33;19.70;;;;;;;8.47;69.98;99646.63;5120034;28;20180;-71
2021/01/20 03:16:13;;;;;;;23.20;19.30;;;;;;;8.00;71.14;99640.44;5120272;28;20413;-70
2021/01/20 03:18:38;;;;;;;22.13;19.80;;;;;;;8.14;70.44;99635.28;5119818;28;20340;-70
2021/01/20 03:21:05;;;;;;;23.37;20.60;;;;;;;8.30;70.29;99645.69;5119599;28;20176;-70
2021/01/20 03:23:30;;;;;;;22.30;19.90;;;;;;;8.67;69.32;99638.81;5120227;28;20167;-71
2021/01/20 03:25:56;;;;;;;28.13;21.47;;;;;;;8.40;69.25;99632.72;5119764;28;20691;-71
2021/01/20 03:28:23;;;;;;;23.87;20.37;;;;;;;8.12;70.75;99639.63;5119721;28;20274;-72
2021/01/20 03:30:48;;;;;;;21.20;19.00;;;;;;;8.23;70.75;99630.09;5119924;28;20445;-71
2021/01/20 03:33:13;;;;;;;24.70;21.27;;;;;;;8.33;69.78;99620.59;5119504;28;20502;-70
2021/01/20 03:35:39;;;;;;;24.77;19.50;;;;;;;7.80;71.34;99626.56;5119492;28;20175;-72
2021/01/20 03:38:04;;;;;;;22.47;18.27;;;;;;;8.23;70.34;99621.47;5119716;28;20194;-72
2021/01/20 03:40:29;;;;;;;23.43;17.83;;;;;;;8.27;70.17;99621.44;5119272;27;20204;-72
2021/01/20 03:42:55;;;;;;;21.17;18.97;;;;;;;8.35;70.08;99615.38;5119426;28;20266;-69
2021/01/20 03:45:21;;;;;;;20.40;18.13;;;;;;;8.23;70.31;99614.53;5119798;28;20172;-69
2021/01/20 03:47:46;;;;;;;20.10;17.60;;;;;;;8.08;70.46;99617.97;5119409;28;20174;-69
2021/01/20 03:50:12;;;;;;;23.73;19.00;;;;;;;8.51;69.24;99606.78;5119036;28;20691;-69
2021/01/20 03:52:37;;;;;;;20.87;17.70;;;;;;;8.57;68.99;99614.56;5119591;28;20168;-71
2021/01/20 03:55:03;;;;;;;19.70;16.73;;;;;;;7.69;71.51;99609.22;5119106;28;20506;-70
2021/01/20 03:57:28;;;;;;;20.00;17.73;;;;;;;7.79;70.77;99604.91;5119078;28;20282;-71
2021/01/20 03:59:53;;;;;;;19.80;17.70;;;;;;;8.12;70.29;99611.06;5119294;28;20195;-70
2021/01/20 04:02:18;;;;;;;19.13;16.67;;;;;;;8.04;70.04;99608.44;5118156;28;20179;-72
2021/01/20 04:04:44;;;;;;;18.93;16.77;;;;;;;8.11;70.14;99608.47;5118801;28;20219;-70
2021/01/20 04:07:09;;;;;;;19.17;16.50;;;;;;;8.17;70.21;99595.47;5119215;28;20213;-70
2021/01/20 04:09:34;;;;;;;20.20;18.20;;;;;;;7.93;70.87;99594.59;5118805;28;20436;-69
2021/01/20 04:12:00;;;;;;;19.70;17.10;;;;;;;7.82;71.13;99593.69;5118208;28;20175;-70
2021/01/20 04:14:25;;;;;;;20.90;18.03;;;;;;;8.06;70.34;99593.75;5119418;28;20470;-70
2021/01/20 04:16:51;;;;;;;21.60;17.80;;;;;;;7.90;70.61;99579.88;5118838;28;20305;-70
2021/01/20 04:19:16;;;;;;;20.73;18.23;;;;;;;8.17;70.80;99582.50;5118531;28;20215;-70
2021/01/20 04:21:41;;;;;;;21.53;19.10;;;;;;;8.44;69.57;99576.44;5118844;28;20168;-70
2021/01/20 04:24:07;;;;;;;25.30;20.00;;;;;;;8.26;70.06;99590.28;5118681;28;20290;-71
2021/01/20 04:26:32;;;;;;;21.37;19.03;;;;;;;8.37;69.34;99579.91;5118634;28;20163;-70
2021/01/20 04:28:58;;;;;;;22.23;20.00;;;;;;;8.33;69.82;99575.59;5118882;28;20254;-70
2021/01/20 04:31:23;;;;;;;22.13;19.60;;;;;;;8.56;68.93;99583.41;5118265;28;20258;-70
2021/01/20 04:33:48;;;;;;;26.87;19.53;;;;;;;8.56;68.56;99571.25;5118408;28;20201;-70
2021/01/20 04:36:14;;;;;;;25.30;20.10;;;;;;;8.18;70.08;99579.03;5118680;28;20172;-67
2021/01/20 04:38:39;;;;;;;20.50;18.30;;;;;;;8.28;69.18;99585.97;5118245;28;20276;-69
2021/01/20 04:41:04;;;;;;;20.43;18.40;;;;;;;8.20;69.55;99577.28;5118182;28;20231;-69
2021/01/20 04:43:29;;;;;;;20.13;18.03;;;;;;;8.62;68.51;99573.00;5118605;28;20199;-70
2021/01/20 04:45:55;;;;;;;20.10;17.97;;;;;;;8.31;68.46;99579.91;5118269;28;20258;-68
2021/01/20 04:48:21;;;;;;;21.93;18.90;;;;;;;8.25;69.17;99572.97;5118275;28;20175;-69
2021/01/20 04:50:47;;;;;;;19.57;17.57;;;;;;;8.29;69.06;99568.66;5118175;28;20183;-71
2021/01/20 04:53:13;;;;;;;18.83;16.87;;;;;;;8.14;68.96;99578.16;5117884;28;20598;-68
2021/01/20 04:55:42;;;;;;;36.80;29.83;;;;;;;10.63;66.89;99556.31;5118141;28;20429;-66
2021/01/20 04:58:09;;;;;;;18.93;16.83;;;;;;;9.35;64.96;99563.28;5111123;28;20433;-68
2021/01/20 05:00:35;;;;;;;17.73;15.83;;;;;;;9.03;65.78;99566.00;5106647;28;20532;-66
2021/01/20 05:03:04;;;;;;;17.50;14.87;;;;;;;8.87;65.89;99562.56;5097494;28;20410;-67
2021/01/20 05:05:30;;;;;;;17.03;15.43;;;;;;;8.52;66.99;99563.50;5097832;28;20192;-67
2021/01/20 05:07:55;;;;;;;16.57;14.63;;;;;;;8.22;67.63;99560.00;5097569;28;20453;-66
2021/01/20 05:10:20;;;;;;;17.80;13.97;;;;;;;8.27;68.37;99555.69;5097461;28;20168;-66
2021/01/20 05:12:46;;;;;;;19.80;15.20;;;;;;;8.47;67.65;99544.44;5096758;28;20564;-67
2021/01/20 05:15:14;;;;;;;17.03;15.30;;;;;;;8.72;66.26;99545.28;5097462;28;20178;-66
2021/01/20 05:17:56;;;;;;;18.70;14.93;;;;;;;8.38;66.01;99538.34;5097520;28;20203;-67
2021/01/20 05:20:35;;;;;;;15.90;13.47;;;;;;;8.92;65.84;99545.22;5097191;28;20837;-67
2021/01/20 05:23:02;;;;;;;14.53;13.13;;;;;;;8.78;66.09;99550.44;5097428;28;20428;-67
2021/01/20 05:25:29;;;;;;;13.97;12.60;;;;;;;7.99;68.21;99555.66;5097401;28;20508;-66
2021/01/20 05:27:54;;;;;;;14.80;13.30;;;;;;;8.59;68.38;99539.22;5097341;28;20424;-67
2021/01/20 05:30:20;;;;;;;15.77;13.33;;;;;;;8.62;66.38;99549.63;5096770;28;20490;-66
2021/01/20 05:32:56;;;;;;;14.13;12.63;;;;;;;8.42;66.49;99534.03;5096498;28;20175;-67
2021/01/20 05:35:21;;;;;;;16.13;13.10;;;;;;;8.12;67.76;99537.50;5097203;28;20449;-66
2021/01/20 05:37:47;;;;;;;17.37;12.07;;;;;;;8.87;66.21;99534.81;5097203;28;20418;-67
2021/01/20 05:40:15;;;;;;;13.27;11.97;;;;;;;7.95;68.23;99529.72;5096921;28;20215;-66
2021/01/20 05:42:49;;;;;;;14.00;12.60;;;;;;;8.25;67.96;99536.63;5097465;28;20418;-67
2021/01/20 05:45:15;;;;;;;13.90;12.50;;;;;;;8.26;67.36;99513.25;5097157;28;20447;-68
2021/01/20 05:48:06;;;;;;;13.73;12.07;;;;;;;8.40;68.25;99530.56;5097119;28;20422;-67
2021/01/20 05:50:32;;;;;;;14.53;12.97;;;;;;;8.63;66.35;99533.16;5097097;28;20165;-67
2021/01/20 05:53:10;;;;;;;16.80;12.27;;;;;;;8.45;67.15;99533.16;5096409;28;20721;-66
2021/01/20 05:55:37;;;;;;;16.07;11.67;;;;;;;8.43;68.43;99533.19;5097136;28;20809;-66
2021/01/20 05:58:03;;;;;;;15.47;12.50;;;;;;;8.17;68.24;99530.56;5096931;28;20392;-66
2021/01/20 06:00:29;;;;;;;12.30;11.10;;;;;;;8.04;67.86;99530.56;5096745;28;20461;-68
2021/01/20 06:02:55;;;;;;;13.97;11.40;;;;;;;8.28;68.34;99528.88;5096795;28;20463;-67
2021/01/20 06:05:22;;;;;;;15.73;11.40;;;;;;;8.37;67.61;99521.03;5096584;28;20167;-67
2021/01/20 06:07:49;;;;;;;11.60;10.47;;;;;;;8.52;67.30;99527.97;5096957;28;20397;-66
2021/01/20 06:10:14;;;;;;;14.87;10.50;;;;;;;7.41;70.38;99533.94;5096787;28;20471;-67
2021/01/20 06:12:40;;;;;;;14.43;11.47;;;;;;;8.07;69.31;99525.38;5097278;28;20388;-66
2021/01/20 06:15:05;;;;;;;12.40;11.20;;;;;;;8.15;69.72;99522.78;5096909;28;20177;-67
2021/01/20 06:17:41;;;;;;;14.40;10.70;;;;;;;8.15;68.32;99517.59;5096853;28;20169;-66
2021/01/20 06:20:08;;;;;;;13.10;11.37;;;;;;;8.39;69.17;99516.72;5096682;28;20576;-67
2021/01/20 06:22:34;;;;;;;12.07;10.50;;;;;;;8.02;68.69;99521.06;5096873;28;20414;-67
2021/01/20 06:25:07;;;;;;;12.03;10.60;;;;;;;8.13;68.39;99519.31;5098296;28;20407;-67
2021/01/20 06:27:39;;;;;;;12.00;10.50;;;;;;;8.21;68.27;99520.22;5100487;28;20418;-67
2021/01/20 06:30:29;;;;;;;12.27;10.97;;;;;;;8.33;67.96;99521.91;5099669;28;20414;-68
2021/01/20 06:32:55;;;;;;;16.17;11.60;;;;;;;8.03;68.82;99518.47;5100346;28;20421;-66
2021/01/20 06:35:21;;;;;;;12.20;10.63;;;;;;;8.13;69.17;99518.47;5099643;28;20499;-67
2021/01/20 06:37:47;;;;;;;12.30;10.13;;;;;;;7.69;70.28;99522.75;5100519;28;20431;-67
2021/01/20 06:40:22;;;;;;;16.23;10.67;;;;;;;7.87;69.29;99524.50;5100194;28;20604;-67
2021/01/20 06:42:48;;;;;;;13.33;11.63;;;;;;;8.38;67.90;99519.31;5100268;28;20415;-67
2021/01/20 06:45:17;;;;;;;15.10;10.73;;;;;;;8.11;69.21;99522.81;5100264;28;20744;-67
2021/01/20 06:47:58;;;;;;;15.20;11.33;;;;;;;7.99;68.57;99534.91;5100416;28;20504;-67
2021/01/20 06:50:23;;;;;;;12.40;10.20;;;;;;;7.96;68.70;99521.06;5114006;27;20821;-66
2021/01/20 06:53:05;;;;;;;15.93;11.93;;;;;;;8.08;69.36;99511.53;5108617;28;20421;-67
2021/01/20 06:55:32;;;;;;;15.10;10.50;;;;;;;7.98;68.76;99520.19;5107949;27;20266;-67
2021/01/20 06:58:20;;;;;;;14.53;10.70;;;;;;;8.52;66.96;99514.13;5113849;27;20426;-67
2021/01/20 07:01:00;;;;;;;12.87;11.20;;;;;;;8.55;66.70;99508.91;5110433;28;20803;-67
2021/01/20 07:03:46;;;;;;;14.00;10.03;;;;;;;8.21;67.37;99509.81;5113758;28;20472;-68
2021/01/20 07:06:33;;;;;;;13.00;11.43;;;;;;;8.38;67.92;99503.75;5104157;28;20433;-69
2021/01/20 07:08:59;;;;;;;13.10;10.10;;;;;;;8.36;68.65;99511.53;5112595;27;20439;-67
2021/01/20 07:11:24;;;;;;;14.40;11.77;;;;;;;8.17;68.60;99499.44;5113309;28;20426;-66
2021/01/20 07:13:50;;;;;;;12.87;10.47;;;;;;;8.07;69.18;99496.81;5110629;28;20251;-67
2021/01/20 07:16:16;;;;;;;11.97;10.40;;;;;;;8.48;67.64;99502.03;5120306;28;20166;-68
2021/01/20 07:18:44;;;;;;;13.20;11.33;;;;;;;8.44;67.46;99495.91;5118994;28;20191;-67
2021/01/20 07:21:09;;;;;;;12.23;10.90;;;;;;;8.49;67.37;99490.78;5111256;28;20482;-68
2021/01/20 07:23:35;;;;;;;13.87;9.80;;;;;;;8.58;68.48;99485.56;5109148;28;20400;-68
2021/01/20 07:26:05;;;;;;;12.83;9.80;;;;;;;8.30;68.48;99487.31;5120426;28;20479;-67
2021/01/20 07:28:31;;;;;;;13.80;10.53;;;;;;;8.06;68.52;99489.03;5120654;28;20171;-68
2021/01/20 07:31:04;;;;;;;11.83;10.17;;;;;;;8.32;68.39;99477.78;5107634;27;20455;-69
2021/01/20 07:33:30;;;;;;;11.13;9.40;;;;;;;8.30;69.24;99482.97;5110279;28;20188;-72
2021/01/20 07:35:56;;;;;;;12.40;10.20;;;;;;;8.46;67.62;99485.56;5104637;28;20421;-69
2021/01/20 07:38:31;;;;;;;11.50;9.10;;;;;;;8.36;68.88;99475.19;5109255;28;20187;-68
2021/01/20 07:40:56;;;;;;;10.27;9.27;;;;;;;8.59;68.22;99476.88;5107934;28;20645;-72
2021/01/20 07:43:22;;;;;;;11.83;9.83;;;;;;;8.64;67.69;99479.47;5099881;28;20448;-68
2021/01/20 07:45:48;;;;;;;10.63;9.40;;;;;;;8.74;67.41;99484.63;5099720;28;20258;-68
2021/01/20 07:48:13;;;;;;;11.03;9.93;;;;;;;8.83;66.49;99475.09;5099956;28;20413;-69
2021/01/20 07:50:46;;;;;;;11.40;9.63;;;;;;;8.63;67.41;99470.81;5104916;28;20212;-69
2021/01/20 07:53:19;;;;;;;11.53;9.73;;;;;;;8.69;66.86;99470.78;5116665;28;20175;-71
2021/01/20 07:55:46;;;;;;;10.23;9.10;;;;;;;8.19;68.52;99471.75;5112784;28;20440;-70
2021/01/20 07:58:13;;;;;;;10.87;9.77;;;;;;;8.75;66.75;99469.91;5099612;28;20432;-70
2021/01/20 08:00:42;;;;;;;9.60;8.70;;;;;;;8.80;66.27;99464.72;5106945;28;20523;-70
2021/01/20 08:03:07;;;;;;;10.90;9.67;;;;;;;9.01;66.21;99472.41;5118708;28;20516;-71
2021/01/20 08:05:34;;;;;;;11.77;9.80;;;;;;;8.99;65.68;99455.94;5120023;28;20449;-69
2021/01/20 08:08:10;;;;;;;9.30;8.40;;;;;;;8.55;67.06;99469.97;5120005;28;20164;-69
2021/01/20 08:10:35;;;;;;;9.80;8.80;;;;;;;8.81;66.16;99462.09;5119697;28;20397;-69
2021/01/20 08:13:01;;;;;;;13.63;9.43;;;;;;;9.22;65.12;99463.63;5107136;28;20471;-70
2021/01/20 08:15:30;;;;;;;8.83;7.93;;;;;;;9.07;65.07;99472.38;5101244;28;20203;-69
2021/01/20 08:17:56;;;;;;;9.67;8.67;;;;;;;8.95;65.92;99468.97;5105596;28;20414;-70
2021/01/20 08:20:22;;;;;;;10.73;8.97;;;;;;;9.05;65.83;99466.34;5119723;28;20547;-72
2021/01/20 08:22:48;;;;;;;11.80;8.20;;;;;;;9.50;64.12;99468.69;5119310;28;20858;-71
2021/01/20 08:25:21;;;;;;;9.80;8.90;;;;;;;9.16;64.99;99468.00;5103130;28;20202;-71
2021/01/20 08:27:46;;;;;;;9.07;7.43;;;;;;;9.10;65.58;99461.94;5099724;28;20439;-70
2021/01/20 08:30:13;;;;;;;9.83;8.20;;;;;;;9.31;66.01;99464.44;5098749;28;20415;-70
2021/01/20 08:32:56;;;;;;;8.80;7.70;;;;;;;9.76;62.70;99459.81;5099059;28;20169;-70
2021/01/20 08:35:30;;;;;;;8.27;7.43;;;;;;;10.01;63.07;99472.63;5098213;28;20869;-71
2021/01/20 08:37:55;;;;;;;8.50;7.47;;;;;;;9.76;62.98;99458.06;5098372;28;20453;-70
2021/01/20 08:40:21;;;;;;;7.90;7.10;;;;;;;9.61;63.24;99460.81;5098493;28;20508;-70
2021/01/20 08:42:46;;;;;;;8.67;7.70;;;;;;;9.72;62.48;99458.13;5098760;28;20176;-70
2021/01/20 08:45:20;;;;;;;7.83;7.10;;;;;;;9.36;63.56;99453.16;5099258;28;20187;-71
2021/01/20 08:47:57;;;;;;;8.77;7.87;;;;;;;9.81;62.61;99471.06;5098230;28;20554;-70
2021/01/20 08:50:45;;;;;;;9.30;7.30;;;;;;;9.81;62.82;99475.38;5098531;28;20417;-70
2021/01/20 08:53:25;;;;;;;7.30;6.43;;;;;;;9.28;62.77;99454.91;5098402;28;20682;-70
2021/01/20 08:55:52;;;;;;;7.87;6.73;;;;;;;9.99;61.71;99466.59;5098087;28;20451;-71
2021/01/20 08:58:30;;;;;;;9.10;7.13;;;;;;;9.89;61.45;99461.47;5098020;28;20442;-72
2021/01/20 09:01:15;;;;;;;7.47;6.70;;;;;;;9.78;61.09;99464.16;5098051;28;20803;-71
2021/01/20 09:03:53;;;;;;;6.90;6.20;;;;;;;9.90;60.41;99457.09;5098258;28;20429;-70
2021/01/20 09:06:19;;;;;;;7.60;6.80;;;;;;;9.32;62.16;99461.84;5098652;28;20385;-71
2021/01/20 09:08:44;;;;;;;7.30;6.40;;;;;;;9.42;61.93;99460.06;5117451;28;20478;-70
2021/01/20 09:11:09;;;;;;;8.50;6.10;;;;;;;9.84;60.88;99475.38;5118295;28;20171;-71
2021/01/20 09:13:35;;;;;;;7.33;6.33;;;;;;;9.85;61.01;99474.50;5119009;28;20172;-70
2021/01/20 09:16:00;;;;;;;7.20;6.50;;;;;;;9.53;61.97;99462.59;5118297;28;20233;-71
2021/01/20 09:18:25;;;;;;;6.57;5.90;;;;;;;9.80;61.02;99451.13;5118221;28;20250;-70
2021/01/20 09:20:51;;;;;;;7.83;6.43;;;;;;;10.40;58.54;99437.53;5118955;28;20172;-70
2021/01/20 09:23:17;;;;;;;7.43;6.20;;;;;;;10.20;59.47;99452.50;5118591;28;20186;-70
2021/01/20 09:25:42;;;;;;;6.83;6.13;;;;;;;10.48;58.47;99449.66;5118604;28;20432;-70
2021/01/20 09:28:08;;;;;;;7.53;6.13;;;;;;;9.94;60.02;99453.59;5119054;28;20436;-71
2021/01/20 09:30:33;;;;;;;8.37;6.40;;;;;;;10.31;59.29;99455.00;5118391;28;20195;-70
2021/01/20 09:32:59;;;;;;;7.50;6.30;;;;;;;10.56;58.10;99447.81;5118664;28;20258;-70
2021/01/20 09:35:25;;;;;;;8.00;6.40;;;;;;;10.83;57.40;99445.78;5115940;28;20199;-71
2021/01/20 09:37:53;;;;;;;6.70;6.10;;;;;;;10.34;57.77;99447.16;5098347;28;20168;-70
2021/01/20 09:40:20;;;;;;;7.45;6.45;;;;;;;9.94;59.41;99461.41;5108705;28;20434;-71
2021/01/20 09:42:47;;;;;;;7.20;6.50;;;;;;;9.76;59.63;99444.19;5118675;28;20409;-71
2021/01/20 09:45:14;;;;;;;6.50;5.63;;;;;;;9.87;59.21;99446.72;5118220;28;20420;-71
2021/01/20 09:47:42;;;;;;;8.10;6.00;;;;;;;10.14;58.40;99442.16;5100021;28;20401;-72
2021/01/20 09:50:08;;;;;;;7.70;6.17;;;;;;;10.05;58.89;99443.09;5098232;28;20381;-76
2021/01/20 09:52:34;;;;;;;7.20;6.50;;;;;;;10.07;58.19;99434.38;5097736;28;20689;-70
2021/01/20 09:55:00;;;;;;;7.83;6.50;;;;;;;10.45;57.81;99429.69;5097634;28;20410;-71
2021/01/20 09:57:25;;;;;;;6.73;5.90;;;;;;;10.32;58.07;99433.28;5109636;28;20209;-69
2021/01/20 09:59:51;;;;;;;6.77;6.17;;;;;;;10.12;57.53;99436.97;5119724;28;20230;-75
2021/01/20 10:02:17;;;;;;;5.50;5.00;;;;;;;10.43;57.37;99427.13;5121417;28;20175;-72
2021/01/20 10:04:43;;;;;;;6.50;5.57;;;;;;;10.34;57.02;99421.13;5122113;28;20219;-73
2021/01/20 10:07:08;;;;;;;7.10;5.90;;;;;;;10.44;57.74;99421.03;5122279;28;20264;-73
2021/01/20 10:09:34;;;;;;;6.00;5.40;;;;;;;10.11;57.23;99417.00;5122144;28;20426;-70
2021/01/20 10:12:00;;;;;;;5.80;5.30;;;;;;;10.88;56.00;99413.53;5121279;28;20163;-69
2021/01/20 10:14:25;;;;;;;4.83;4.43;;;;;;;10.56;55.87;99412.19;5121684;28;20428;-72
2021/01/20 10:16:52;;;;;;;5.03;4.60;;;;;;;10.57;55.67;99418.28;5122290;28;20209;-71
2021/01/20 10:19:17;;;;;;;5.83;5.10;;;;;;;10.57;55.32;99418.28;5122101;28;20275;-71
2021/01/20 10:21:43;;;;;;;5.77;5.27;;;;;;;10.47;56.07;99429.69;5121884;28;20399;-70
2021/01/20 10:24:09;;;;;;;7.67;5.80;;;;;;;10.29;56.66;99422.00;5122157;28;20164;-70
2021/01/20 10:26:35;;;;;;;5.70;5.20;;;;;;;10.29;56.76;99418.53;5121832;28;20458;-69
2021/01/20 10:29:01;;;;;;;5.43;4.93;;;;;;;10.34;56.82;99421.97;5121741;28;20399;-71
2021/01/20 10:31:35;;;;;;;6.67;5.87;;;;;;;10.63;55.15;99418.19;5121753;28;20410;-70
2021/01/20 10:34:00;;;;;;;6.10;5.50;;;;;;;10.51;56.01;99407.91;5121610;28;20634;-70
2021/01/20 10:36:26;;;;;;;5.57;4.97;;;;;;;10.92;56.09;99407.41;5121573;28;20523;-68
2021/01/20 10:38:53;;;;;;;8.00;5.77;;;;;;;10.53;56.30;99406.16;5121683;28;20267;-72
2021/01/20 10:41:19;;;;;;;8.47;6.90;;;;;;;10.58;57.51;99405.22;5121292;28;20179;-69
2021/01/20 10:43:45;;;;;;;5.70;5.20;;;;;;;10.22;57.07;99414.28;5121493;28;20680;-69
2021/01/20 10:46:10;;;;;;;7.00;6.17;;;;;;;10.74;56.02;99402.41;5121624;28;20405;-70
2021/01/20 10:48:35;;;;;;;6.47;5.80;;;;;;;10.77;56.16;99399.78;5121256;28;20547;-69
2021/01/20 10:51:01;;;;;;;6.10;5.50;;;;;;;10.83;56.02;99402.31;5121154;28;20221;-69
2021/01/20 10:53:26;;;;;;;7.90;5.63;;;;;;;10.96;55.54;99403.03;5121769;28;20163;-71
2021/01/20 10:55:51;;;;;;;8.53;5.10;;;;;;;10.57;55.50;99407.84;5121217;28;20574;-70
2021/01/20 10:58:16;;;;;;;5.73;5.20;;;;;;;10.47;56.57;99404.47;5121291;28;20164;-71
2021/01/20 11:00:42;;;;;;;6.03;5.43;;;;;;;10.29;57.62;99405.53;5121422;28;20598;-70
2021/01/20 11:03:07;;;;;;;6.20;5.30;;;;;;;10.53;56.31;99399.19;5120982;28;20212;-71
2021/01/20 11:05:32;;;;;;;7.73;5.40;;;;;;;10.78;55.59;99398.91;5121205;28;20171;-70
2021/01/20 11:07:57;;;;;;;5.53;5.03;;;;;;;10.67;56.01;99391.22;5121351;28;20197;-71
2021/01/20 11:10:23;;;;;;;5.90;5.40;;;;;;;10.70;55.88;99393.81;5120267;28;20191;-72
2021/01/20 11:12:48;;;;;;;8.73;5.30;;;;;;;10.96;55.28;99395.19;5121122;28;20532;-70
2021/01/20 11:15:14;;;;;;;6.97;5.50;;;;;;;11.04;55.57;99398.56;5121351;28;20195;-72
2021/01/20 11:17:40;;;;;;;5.87;5.13;;;;;;;11.06;56.06;99396.78;5120897;28;20163;-72
2021/01/20 11:20:06;;;;;;;7.00;5.90;;;;;;;10.93;55.55;99390.00;5120674;28;20528;-74
2021/01/20 11:22:32;;;;;;;8.03;4.97;;;;;;;10.65;55.47;99403.41;5120382;28;20175;-74
2021/01/20 11:25:00;;;;;;;6.50;5.03;;;;;;;10.87;55.46;99392.72;5120637;28;20800;-72
2021/01/20 11:27:27;;;;;;;4.70;4.30;;;;;;;10.36;56.52;99394.19;5120665;28;20178;-72
2021/01/20 11:29:52;;;;;;;5.23;4.70;;;;;;;10.69;55.93;99386.84;5121055;28;20458;-72
2021/01/20 11:32:18;;;;;;;6.40;5.10;;;;;;;10.66;56.27;99386.88;5120848;28;20790;-72